createdAt,value
2019-03-19T00:01:35.793Z,10.53
2019-03-19T00:09:25.602Z,11.03
2019-03-19T00:14:34.759Z,10.40
2019-03-19T00:17:11.118Z,9.00
2019-03-19T00:19:45.207Z,9.88
2019-03-19T00:24:52.318Z,10.08
2019-03-19T00:27:29.024Z,9.90
2019-03-19T00:30:03.398Z,11.68
2019-03-19T00:32:53.409Z,12.05
2019-03-19T00:35:47.402Z,11.35
2019-03-19T00:40:52.111Z,10.78
2019-03-19T00:46:00.148Z,9.03
2019-03-19T00:51:06.667Z,10.20
2019-03-19T00:56:11.776Z,9.90
2019-03-19T01:01:20.945Z,9.55
2019-03-19T01:06:23.438Z,9.90
2019-03-19T01:11:23.877Z,9.33
2019-03-19T01:17:06.444Z,8.80
2019-03-19T01:22:11.338Z,9.98
2019-03-19T01:27:20.253Z,8.43
2019-03-19T01:29:50.528Z,8.40
2019-03-19T01:32:20.007Z,10.55
2019-03-19T01:37:39.324Z,9.43
2019-03-19T01:42:39.282Z,8.55
2019-03-19T01:47:38.965Z,8.58
2019-03-19T01:50:34.966Z,8.95
2019-03-19T01:58:30.503Z,9.73
2019-03-19T02:03:36.774Z,9.53
2019-03-19T02:08:40.031Z,8.30
2019-03-19T02:13:40.879Z,7.20
2019-03-19T02:16:29.918Z,8.73
2019-03-19T02:19:09.939Z,7.65
2019-03-19T02:21:37.486Z,8.03
2019-03-19T02:24:07.966Z,8.90
2019-03-19T02:26:41.301Z,9.83
2019-03-19T02:29:11.810Z,8.05
2019-03-19T02:34:36.760Z,8.50
2019-03-19T02:39:42.017Z,7.22
2019-03-19T02:45:08.090Z,7.28
2019-03-19T02:50:14.119Z,8.15
2019-03-19T02:55:14.583Z,9.10
2019-03-19T02:58:08.839Z,8.08
2019-03-19T03:00:39.773Z,8.30
2019-03-19T03:06:32.526Z,8.43
2019-03-19T03:09:04.162Z,8.78
2019-03-19T03:11:34.839Z,8.25
2019-03-19T03:17:17.745Z,8.10
2019-03-19T03:22:19.660Z,7.17
2019-03-19T03:24:50.472Z,7.22
2019-03-19T03:27:20.824Z,5.95
2019-03-19T03:32:25.178Z,7.65
2019-03-19T03:37:26.547Z,9.63
2019-03-19T03:39:59.940Z,7.70
2019-03-19T03:50:01.496Z,6.05
2019-03-19T03:52:38.807Z,6.72
2019-03-19T03:58:00.604Z,9.93
2019-03-19T04:00:51.300Z,7.20
2019-03-19T04:03:25.529Z,6.35
2019-03-19T04:05:58.846Z,6.62
2019-03-19T04:13:59.785Z,7.53
2019-03-19T04:19:00.712Z,7.50
2019-03-19T04:21:32.270Z,6.90
2019-03-19T04:26:40.828Z,8.08
2019-03-19T04:31:40.436Z,5.33
2019-03-19T04:39:16.928Z,6.05
2019-03-19T04:47:12.542Z,7.67
2019-03-19T04:49:42.902Z,7.37
2019-03-19T04:52:12.925Z,8.03
2019-03-19T04:57:13.009Z,7.28
2019-03-19T05:02:32.842Z,6.33
2019-03-19T05:07:55.818Z,5.90
2019-03-19T05:10:26.288Z,7.85
2019-03-19T05:12:56.762Z,6.30
2019-03-19T05:15:27.175Z,5.97
2019-03-19T05:20:31.570Z,6.25
2019-03-19T05:31:05.568Z,6.03
2019-03-19T05:33:36.025Z,7.15
2019-03-19T05:36:06.426Z,7.50
2019-03-19T05:38:37.892Z,7.60
2019-03-19T05:41:28.695Z,6.85
2019-03-19T05:44:05.974Z,5.85
2019-03-19T05:49:28.798Z,6.33
2019-03-19T05:54:35.837Z,6.22
2019-03-19T05:57:07.461Z,7.10
2019-03-19T06:00:06.753Z,6.03
2019-03-19T06:02:39.036Z,5.80
2019-03-19T06:05:10.672Z,5.87
2019-03-19T06:07:43.918Z,5.85
2019-03-19T06:12:46.462Z,6.05
2019-03-19T06:15:26.723Z,7.75
2019-03-19T06:18:34.725Z,6.15
2019-03-19T06:23:32.550Z,7.85
2019-03-19T06:28:45.844Z,8.23
2019-03-19T06:31:16.797Z,9.28
2019-03-19T06:33:48.173Z,7.55
2019-03-19T06:36:18.754Z,7.20
2019-03-19T06:38:49.086Z,5.50
2019-03-19T06:41:22.546Z,8.08
2019-03-19T06:43:54.052Z,7.25
2019-03-19T06:46:28.250Z,10.55
2019-03-19T06:48:58.841Z,14.20
2019-03-19T06:51:29.267Z,11.22
2019-03-19T06:53:59.921Z,10.20
2019-03-19T06:56:30.743Z,14.75
2019-03-19T06:59:00.967Z,12.00
2019-03-19T07:01:31.307Z,14.85
2019-03-19T07:04:01.812Z,14.87
2019-03-19T07:06:32.398Z,11.95
2019-03-19T07:09:10.801Z,11.18
2019-03-19T07:11:46.187Z,14.25
2019-03-19T07:14:19.694Z,10.60
2019-03-19T07:17:12.360Z,10.28
2019-03-19T07:19:44.293Z,13.35
2019-03-19T07:22:18.482Z,12.47
2019-03-19T07:25:10.836Z,8.88
2019-03-19T07:27:48.419Z,20.37
2019-03-19T07:33:00.678Z,33.13
2019-03-19T07:39:42.392Z,18.35
2019-03-19T07:42:10.122Z,23.45
2019-03-19T07:44:41.531Z,22.87
2019-03-19T07:50:01.991Z,18.20
2019-03-19T08:16:45.535Z,14.35
2019-03-19T08:19:15.096Z,12.00
2019-03-19T08:21:47.618Z,9.60
2019-03-19T08:24:24.454Z,14.60
2019-03-19T08:27:00.969Z,16.15
2019-03-19T08:33:09.574Z,13.90
2019-03-19T08:39:48.398Z,20.88
2019-03-19T08:47:24.209Z,20.72
2019-03-19T08:50:01.494Z,18.12
2019-03-19T08:55:56.927Z,22.27
2019-03-19T09:04:09.711Z,21.95
2019-03-19T09:15:31.599Z,19.33
2019-03-19T09:18:00.972Z,18.07
2019-03-19T09:20:40.493Z,23.20
2019-03-19T09:26:10.270Z,26.57
2019-03-19T10:04:50.503Z,20.37
2019-03-19T10:07:21.049Z,23.55
2019-03-19T10:12:54.539Z,21.57
2019-03-19T10:18:11.074Z,23.83
2019-03-19T10:32:42.840Z,28.38
2019-03-19T10:41:22.829Z,18.27
2019-03-19T11:04:00.159Z,17.40
2019-03-19T11:09:19.522Z,21.23
2019-03-19T11:33:47.832Z,9.25
2019-03-19T11:47:26.738Z,14.95
2019-03-19T11:55:25.029Z,17.85
2019-03-19T11:57:57.390Z,22.30
2019-03-19T12:03:33.151Z,29.70
2019-03-19T12:11:56.346Z,14.38
2019-03-19T12:14:30.381Z,22.02
2019-03-19T12:17:04.981Z,21.95
2019-03-19T12:20:07.450Z,21.80
2019-03-19T12:23:16.833Z,21.52
2019-03-19T12:29:22.135Z,16.48
2019-03-19T12:31:27.022Z,11.57
2019-03-19T12:39:26.027Z,19.48
2019-03-19T13:10:20.918Z,21.23
2019-03-19T13:19:06.128Z,27.17
2019-03-19T13:21:47.720Z,34.40
2019-03-19T13:24:32.420Z,20.17
2019-03-19T13:30:08.692Z,19.52
2019-03-19T13:38:46.991Z,22.67
2019-03-19T13:44:30.744Z,22.45
2019-03-19T13:50:00.134Z,25.92
2019-03-19T13:58:14.907Z,22.27
2019-03-19T14:01:57.819Z,27.10
2019-03-19T14:04:33.737Z,17.23
2019-03-19T14:09:56.055Z,47.43
2019-03-19T14:12:29.101Z,29.15
2019-03-19T14:14:59.427Z,26.45
2019-03-19T14:17:42.132Z,13.53
2019-03-19T14:25:50.535Z,14.65
2019-03-19T14:28:24.039Z,33.75
2019-03-19T14:30:54.477Z,31.48
2019-03-19T14:33:25.004Z,17.75
2019-03-19T14:35:55.726Z,25.40
2019-03-19T14:38:26.182Z,23.12
2019-03-19T14:40:56.728Z,27.93
2019-03-19T14:43:27.725Z,17.27
2019-03-19T14:46:02.580Z,15.48
2019-03-19T14:51:04.473Z,21.50
2019-03-19T14:53:34.917Z,23.98
2019-03-19T14:58:51.602Z,21.45
2019-03-19T15:04:02.293Z,20.25
2019-03-19T15:06:32.712Z,21.33
2019-03-19T15:09:04.259Z,20.68
2019-03-19T15:11:48.400Z,26.55
2019-03-19T15:14:18.678Z,14.60
2019-03-19T15:16:49.035Z,15.68
2019-03-19T15:19:19.405Z,16.05
2019-03-19T15:21:49.950Z,15.65
2019-03-19T15:24:20.333Z,17.57
2019-03-19T15:26:50.737Z,9.10
2019-03-19T15:29:21.276Z,15.13
2019-03-19T15:31:51.714Z,10.48
2019-03-19T15:34:22.024Z,15.63
2019-03-19T15:36:52.420Z,16.05
2019-03-19T15:39:23.857Z,13.22
2019-03-19T15:41:55.299Z,9.80
2019-03-19T15:44:25.790Z,8.70
2019-03-19T15:46:56.254Z,8.58
2019-03-19T15:49:37.627Z,16.77
2019-03-19T15:52:00.236Z,9.95
2019-03-19T15:54:30.648Z,13.15
2019-03-19T15:57:01.048Z,13.85
2019-03-19T15:59:31.357Z,16.05
2019-03-19T16:02:01.705Z,14.05
2019-03-19T16:04:33.225Z,9.53
2019-03-19T16:07:03.785Z,11.60
2019-03-19T16:09:34.145Z,9.03
2019-03-19T16:12:04.592Z,10.45
2019-03-19T16:14:35.019Z,13.58
2019-03-19T16:17:05.369Z,10.40
2019-03-19T16:19:35.840Z,12.55
2019-03-19T16:22:06.211Z,9.78
2019-03-19T16:24:37.607Z,11.08
2019-03-19T16:27:07.944Z,8.20
2019-03-19T16:29:38.385Z,6.85
2019-03-19T16:32:08.919Z,9.05
2019-03-19T16:34:39.264Z,11.22
2019-03-19T16:37:09.734Z,10.60
2019-03-19T16:39:41.180Z,9.78
2019-03-19T16:42:11.536Z,9.10
2019-03-19T16:44:41.877Z,6.75
2019-03-19T16:47:12.261Z,8.35
2019-03-19T16:49:42.717Z,9.05
2019-03-19T16:52:14.183Z,9.50
2019-03-19T16:54:44.719Z,9.63
2019-03-19T16:57:15.116Z,8.78
2019-03-19T16:59:45.428Z,10.45
2019-03-19T17:02:15.819Z,9.10
2019-03-19T17:04:46.190Z,10.63
2019-03-19T17:07:16.561Z,10.58
2019-03-19T17:09:47.021Z,10.60
2019-03-19T17:12:17.387Z,12.93
2019-03-19T17:14:47.774Z,14.45
2019-03-19T17:17:18.156Z,11.70
2019-03-19T17:19:48.705Z,14.15
2019-03-19T17:22:19.100Z,12.07
2019-03-19T17:24:49.675Z,13.10
2019-03-19T17:27:20.040Z,12.50
2019-03-19T17:29:50.398Z,13.55
2019-03-19T17:32:20.819Z,11.95
2019-03-19T17:34:51.214Z,14.95
2019-03-19T17:37:21.680Z,10.68
2019-03-19T17:39:52.083Z,13.88
2019-03-19T17:42:22.527Z,12.23
2019-03-19T17:44:52.924Z,11.30
2019-03-19T17:47:23.409Z,13.55
2019-03-19T17:49:53.778Z,9.10
2019-03-19T17:52:24.313Z,12.33
2019-03-19T17:54:54.912Z,15.28
2019-03-19T17:57:26.880Z,13.32
2019-03-19T17:59:58.429Z,11.00
2019-03-19T18:02:28.779Z,10.93
2019-03-19T18:04:59.046Z,11.33
2019-03-19T18:07:29.513Z,11.85
2019-03-19T18:09:59.900Z,12.85
2019-03-19T18:12:30.247Z,13.85
2019-03-19T18:15:00.560Z,11.80
2019-03-19T18:17:30.843Z,13.13
2019-03-19T18:20:01.238Z,15.48
2019-03-19T18:22:31.921Z,11.53
2019-03-19T18:25:02.409Z,14.23
2019-03-19T18:27:32.845Z,12.58
2019-03-19T18:30:03.262Z,15.10
2019-03-19T18:32:35.286Z,13.08
2019-03-19T18:35:06.235Z,12.90
2019-03-19T18:37:57.224Z,14.65
2019-03-19T18:40:26.793Z,13.03
2019-03-19T18:43:00.274Z,18.02
2019-03-19T18:50:53.200Z,19.57
2019-03-19T18:53:23.589Z,21.77
2019-03-19T18:55:54.035Z,20.92
2019-03-19T18:58:24.576Z,19.42
2019-03-19T19:00:55.014Z,20.65
2019-03-19T19:03:25.509Z,17.45
2019-03-19T19:05:55.894Z,18.98
2019-03-19T19:08:26.336Z,20.77
2019-03-19T19:10:59.673Z,20.60
2019-03-19T19:15:59.020Z,15.95
2019-03-19T19:18:29.478Z,18.67
2019-03-19T19:23:33.357Z,17.95
2019-03-19T19:26:25.593Z,19.70
2019-03-19T19:28:57.499Z,19.48
2019-03-19T19:31:47.235Z,15.08
2019-03-19T19:54:33.565Z,17.85
2019-03-19T19:57:06.386Z,16.27
2019-03-19T19:59:38.951Z,18.32
2019-03-19T20:05:03.317Z,17.23
2019-03-19T20:07:34.232Z,16.87
2019-03-19T20:10:05.291Z,14.60
2019-03-19T20:12:37.885Z,13.88
2019-03-19T20:15:08.707Z,14.20
2019-03-19T20:17:39.257Z,18.77
2019-03-19T20:20:11.429Z,19.25
2019-03-19T20:22:44.608Z,13.90
2019-03-19T20:25:15.251Z,18.95
2019-03-19T20:27:45.882Z,15.08
2019-03-19T20:30:24.523Z,15.95
2019-03-19T20:32:55.024Z,15.32
2019-03-19T20:35:25.468Z,18.55
2019-03-19T20:37:56.223Z,16.82
2019-03-19T20:40:26.726Z,16.82
2019-03-19T20:42:57.245Z,20.57
2019-03-19T20:45:27.647Z,13.48
2019-03-19T20:47:58.078Z,17.25
2019-03-19T20:50:28.790Z,16.23
2019-03-19T20:52:59.139Z,18.73
2019-03-19T20:55:29.480Z,14.83
2019-03-19T20:57:59.789Z,14.87
2019-03-19T21:00:30.115Z,15.08
2019-03-19T21:03:00.518Z,20.17
2019-03-19T21:05:30.940Z,16.87
2019-03-19T21:08:01.340Z,17.92
2019-03-19T21:10:51.102Z,15.45
2019-03-19T21:13:21.810Z,15.93
2019-03-19T21:15:52.217Z,18.20
2019-03-19T21:18:22.632Z,16.90
2019-03-19T21:20:53.159Z,18.15
2019-03-19T21:23:23.689Z,19.52
2019-03-19T21:25:54.161Z,16.73
2019-03-19T21:28:24.678Z,15.20
2019-03-19T21:30:55.148Z,21.00
2019-03-19T21:33:25.709Z,16.73
2019-03-19T21:35:57.270Z,18.37
2019-03-19T21:38:27.822Z,17.05
2019-03-19T21:40:58.628Z,17.52
2019-03-19T21:43:29.097Z,19.02
2019-03-19T21:45:59.480Z,15.98
2019-03-19T21:48:29.903Z,17.00
2019-03-19T21:51:00.365Z,20.52
2019-03-19T21:53:30.758Z,17.42
2019-03-19T21:56:01.203Z,17.73
2019-03-19T21:58:31.615Z,17.42
2019-03-19T22:01:02.252Z,19.00
2019-03-19T22:03:32.711Z,16.15
2019-03-19T22:06:03.108Z,18.52
2019-03-19T22:08:33.998Z,17.65
2019-03-19T22:11:04.357Z,20.23
2019-03-19T22:13:34.827Z,16.77
2019-03-19T22:16:06.422Z,17.82
2019-03-19T22:18:36.787Z,17.15
2019-03-19T22:21:07.253Z,19.02
2019-03-19T22:23:37.623Z,17.30
2019-03-19T22:26:08.172Z,19.48
2019-03-19T22:28:38.637Z,20.45
2019-03-19T22:31:09.074Z,20.17
2019-03-19T22:33:39.460Z,17.90
2019-03-19T22:36:11.792Z,21.73
2019-03-19T22:38:42.067Z,19.82
2019-03-19T22:41:12.482Z,20.77
2019-03-19T22:43:42.920Z,19.20
2019-03-19T22:46:21.319Z,18.95
2019-03-19T22:48:45.429Z,19.37
2019-03-19T22:51:15.905Z,17.73
2019-03-19T22:53:46.248Z,19.20
2019-03-19T22:56:16.707Z,17.30
2019-03-19T22:58:47.069Z,19.27
2019-03-19T23:01:36.609Z,16.70
2019-03-19T23:04:07.144Z,18.42
2019-03-19T23:06:37.545Z,19.95
2019-03-19T23:09:08.017Z,18.95
2019-03-19T23:11:38.532Z,17.42
2019-03-19T23:14:08.982Z,19.60
2019-03-19T23:16:39.558Z,21.75
2019-03-19T23:19:10.338Z,19.15
2019-03-19T23:21:40.852Z,17.45
2019-03-19T23:24:11.307Z,19.55
2019-03-19T23:26:41.716Z,20.57
2019-03-19T23:29:12.167Z,19.70
2019-03-19T23:31:42.529Z,18.07
2019-03-19T23:34:12.979Z,19.30
2019-03-19T23:36:43.388Z,20.60
2019-03-19T23:39:13.964Z,21.10
2019-03-19T23:41:44.531Z,17.87
2019-03-19T23:44:15.078Z,20.35
2019-03-19T23:46:45.508Z,19.57
2019-03-19T23:49:15.955Z,19.23
2019-03-19T23:51:46.455Z,18.87
2019-03-19T23:54:17.029Z,24.60
2019-03-19T23:56:47.484Z,20.52
2019-03-19T23:59:17.965Z,22.07
